createdAt,value
2023-01-13T00:00:20.485Z,81.78
2023-01-13T00:00:42.692Z,81.77
2023-01-13T00:01:08.192Z,81.77
2023-01-13T00:01:29.998Z,81.79
2023-01-13T00:01:51.879Z,81.87
2023-01-13T00:02:13.725Z,81.81
2023-01-13T00:02:35.723Z,81.83
2023-01-13T00:02:57.643Z,81.92
2023-01-13T00:03:19.736Z,81.88
2023-01-13T00:03:41.522Z,81.84
2023-01-13T00:04:05.144Z,81.88
2023-01-13T00:04:26.974Z,81.92
2023-01-13T00:04:48.965Z,81.96
2023-01-13T00:05:11.119Z,81.94
2023-01-13T00:05:32.896Z,82.01
2023-01-13T00:05:54.784Z,82.09
2023-01-13T00:06:17.589Z,82.11
2023-01-13T00:06:39.385Z,82.11
2023-01-13T00:07:01.160Z,82.12
2023-01-13T00:07:23.044Z,82.08
2023-01-13T00:07:46.673Z,82.14
2023-01-13T00:08:08.469Z,82.12
2023-01-13T00:08:30.544Z,82.19
2023-01-13T00:08:52.741Z,82.24
2023-01-13T00:09:14.625Z,82.18
2023-01-13T00:09:36.410Z,82.17
2023-01-13T00:09:58.194Z,82.30
2023-01-13T00:10:20.078Z,82.34
2023-01-13T00:10:41.866Z,82.33
2023-01-13T00:11:03.656Z,82.30
2023-01-13T00:11:26.564Z,82.32
2023-01-13T00:11:48.448Z,82.29
2023-01-13T00:12:10.240Z,82.22
2023-01-13T00:12:32.115Z,82.21
2023-01-13T00:12:54.010Z,82.19
2023-01-13T00:13:15.999Z,82.19
2023-01-13T00:13:38.701Z,82.07
2023-01-13T00:14:00.489Z,82.13
2023-01-13T00:14:22.379Z,81.98
2023-01-13T00:14:44.254Z,82.03
2023-01-13T00:15:06.653Z,82.02
2023-01-13T00:15:28.438Z,81.95
2023-01-13T00:16:03.385Z,81.78
2023-01-13T00:16:25.415Z,81.87
2023-01-13T00:16:47.191Z,81.78
2023-01-13T00:17:09.080Z,81.84
2023-01-13T00:17:30.863Z,81.83
2023-01-13T00:17:52.749Z,81.73
2023-01-13T00:18:14.532Z,81.89
2023-01-13T00:18:39.285Z,81.90
2023-01-13T00:19:01.171Z,81.92
2023-01-13T00:19:23.466Z,81.98
2023-01-13T00:19:46.068Z,81.94
2023-01-13T00:20:08.570Z,81.96
2023-01-13T00:20:30.476Z,81.97
2023-01-13T00:21:18.737Z,82.10
2023-01-13T00:21:40.628Z,82.12
2023-01-13T00:22:02.411Z,82.26
2023-01-13T00:22:24.287Z,82.13
2023-01-13T00:22:46.071Z,82.30
2023-01-13T00:23:07.858Z,82.23
2023-01-13T00:23:30.152Z,82.26
2023-01-13T00:23:52.450Z,82.31
2023-01-13T00:24:14.233Z,82.32
2023-01-13T00:24:36.043Z,82.20
2023-01-13T00:25:01.589Z,82.31
2023-01-13T00:25:23.375Z,82.42
2023-01-13T00:25:45.159Z,82.30
2023-01-13T00:26:10.932Z,82.36
2023-01-13T00:26:36.013Z,82.44
2023-01-13T00:26:57.872Z,82.37
2023-01-13T00:27:19.654Z,82.47
2023-01-13T00:27:41.546Z,82.40
2023-01-13T00:28:03.543Z,82.40
2023-01-13T00:28:25.523Z,82.50
2023-01-13T00:28:47.616Z,82.49
2023-01-13T00:29:09.395Z,82.48
2023-01-13T00:29:31.183Z,82.38
2023-01-13T00:29:53.070Z,82.42
2023-01-13T00:30:15.166Z,82.30
2023-01-13T00:30:38.586Z,82.25
2023-01-13T00:31:06.662Z,82.18
2023-01-13T00:31:28.925Z,82.33
2023-01-13T00:31:50.994Z,82.13
2023-01-13T00:32:12.776Z,82.10
2023-01-13T00:32:34.666Z,82.08
2023-01-13T00:32:56.451Z,82.14
2023-01-13T00:33:18.247Z,82.07
2023-01-13T00:33:40.127Z,82.07
2023-01-13T00:34:02.309Z,82.11
2023-01-13T00:34:24.917Z,81.98
2023-01-13T00:34:46.714Z,82.18
2023-01-13T00:35:08.585Z,82.22
2023-01-13T00:35:30.368Z,82.26
2023-01-13T00:36:01.663Z,82.27
2023-01-13T00:36:23.456Z,82.29
2023-01-13T00:36:45.440Z,82.28
2023-01-13T00:37:08.354Z,82.42
2023-01-13T00:37:30.131Z,82.32
2023-01-13T00:37:51.915Z,82.48
2023-01-13T00:38:13.808Z,82.42
2023-01-13T00:38:35.792Z,82.45
2023-01-13T00:38:57.886Z,82.49
2023-01-13T00:39:19.667Z,82.52
2023-01-13T00:39:41.657Z,82.61
2023-01-13T00:40:03.756Z,82.54
2023-01-13T00:40:25.636Z,82.58
2023-01-13T00:40:55.090Z,82.62
2023-01-13T00:41:17.808Z,82.77
2023-01-13T00:41:58.096Z,82.74
2023-01-13T00:42:38.800Z,82.85
2023-01-13T00:43:19.500Z,82.71
2023-01-13T00:43:41.422Z,82.72
2023-01-13T00:44:03.280Z,82.81
2023-01-13T00:44:25.061Z,82.75
2023-01-13T00:44:46.844Z,82.79
2023-01-13T00:45:08.939Z,82.63
2023-01-13T00:45:30.719Z,82.54
2023-01-13T00:45:53.229Z,82.62
2023-01-13T00:46:16.270Z,82.56
2023-01-13T00:46:38.490Z,82.48
2023-01-13T00:47:01.027Z,82.42
2023-01-13T00:47:23.631Z,82.37
2023-01-13T00:47:45.417Z,82.39
2023-01-13T00:48:07.300Z,82.27
2023-01-13T00:48:29.392Z,82.48
2023-01-13T00:48:51.881Z,82.26
2023-01-13T00:49:13.883Z,82.32
2023-01-13T00:49:35.769Z,82.21
2023-01-13T00:49:57.865Z,82.28
2023-01-13T00:50:19.647Z,82.39
2023-01-13T00:50:41.431Z,82.35
2023-01-13T00:51:07.007Z,82.34
2023-01-13T00:51:28.884Z,82.50
2023-01-13T00:51:50.668Z,82.44
2023-01-13T00:52:12.455Z,82.49
2023-01-13T00:52:34.353Z,82.43
2023-01-13T00:52:56.137Z,82.52
2023-01-13T00:53:18.933Z,82.48
2023-01-13T00:53:41.644Z,82.55
2023-01-13T00:54:03.525Z,82.58
2023-01-13T00:54:25.309Z,82.64
2023-01-13T00:54:47.196Z,82.66
2023-01-13T00:55:09.290Z,82.77
2023-01-13T00:55:31.407Z,82.63
2023-01-13T00:56:18.108Z,82.69
2023-01-13T00:56:41.247Z,82.76
2023-01-13T00:57:03.939Z,82.73
2023-01-13T00:57:25.725Z,82.75
2023-01-13T00:57:47.614Z,82.77
2023-01-13T00:58:09.404Z,82.78
2023-01-13T00:58:31.596Z,82.79
2023-01-13T00:58:53.698Z,82.83
2023-01-13T00:59:15.867Z,82.92
2023-01-13T00:59:37.654Z,82.78
2023-01-13T00:59:59.448Z,82.79
2023-01-13T01:00:21.325Z,82.88
2023-01-13T01:00:43.286Z,82.93
2023-01-13T01:01:06.330Z,82.96
2023-01-13T01:01:28.500Z,82.95
2023-01-13T01:01:50.496Z,82.96
2023-01-13T01:02:12.611Z,82.97
2023-01-13T01:02:34.515Z,83.06
2023-01-13T01:02:56.372Z,82.90
2023-01-13T01:03:18.159Z,82.99
2023-01-13T01:03:40.048Z,82.80
2023-01-13T01:04:01.937Z,82.87
2023-01-13T01:04:23.718Z,82.91
2023-01-13T01:04:45.608Z,82.83
2023-01-13T01:05:07.697Z,82.74
2023-01-13T01:05:29.580Z,82.66
2023-01-13T01:05:51.367Z,82.67
2023-01-13T01:06:14.183Z,82.56
2023-01-13T01:06:35.941Z,82.47
2023-01-13T01:06:57.745Z,82.49
2023-01-13T01:07:19.529Z,82.47
2023-01-13T01:07:41.318Z,82.40
2023-01-13T01:08:03.303Z,82.46
2023-01-13T01:08:25.085Z,82.45
2023-01-13T01:08:46.979Z,82.35
2023-01-13T01:09:10.291Z,82.36
2023-01-13T01:09:34.835Z,82.48
2023-01-13T01:09:56.621Z,82.51
2023-01-13T01:10:18.508Z,82.53
2023-01-13T01:10:40.290Z,82.57
2023-01-13T01:11:03.104Z,82.68
2023-01-13T01:11:26.238Z,82.62
2023-01-13T01:11:48.098Z,82.67
2023-01-13T01:12:09.994Z,82.66
2023-01-13T01:12:31.770Z,82.59
2023-01-13T01:12:53.567Z,82.70
2023-01-13T01:13:17.595Z,82.71
2023-01-13T01:13:39.577Z,82.72
2023-01-13T01:14:02.354Z,82.82
2023-01-13T01:14:24.376Z,82.71
2023-01-13T01:14:46.265Z,82.85
2023-01-13T01:15:10.193Z,82.86
2023-01-13T01:15:32.092Z,82.85
2023-01-13T01:15:53.908Z,82.92
2023-01-13T01:16:16.306Z,82.95
2023-01-13T01:16:38.255Z,83.01
2023-01-13T01:17:00.046Z,83.07
2023-01-13T01:17:21.827Z,83.00
2023-01-13T01:17:43.605Z,83.04
2023-01-13T01:18:05.391Z,83.02
2023-01-13T01:18:27.279Z,83.09
2023-01-13T01:18:49.582Z,83.04
2023-01-13T01:19:11.460Z,83.15
2023-01-13T01:19:33.449Z,83.10
2023-01-13T01:19:55.238Z,83.17
2023-01-13T01:20:17.233Z,83.03
2023-01-13T01:20:39.109Z,83.02
2023-01-13T01:21:01.028Z,83.13
2023-01-13T01:21:23.497Z,83.18
2023-01-13T01:21:45.284Z,83.11
2023-01-13T01:22:07.074Z,83.11
2023-01-13T01:22:28.849Z,83.11
2023-01-13T01:22:50.645Z,83.19
2023-01-13T01:23:12.417Z,83.11
2023-01-13T01:23:34.306Z,83.19
2023-01-13T01:23:56.195Z,83.16
2023-01-13T01:24:18.084Z,83.16
2023-01-13T01:24:39.973Z,83.20
2023-01-13T01:25:01.968Z,83.12
2023-01-13T01:25:23.862Z,83.15
2023-01-13T01:25:45.728Z,83.10
2023-01-13T01:26:27.770Z,83.17
2023-01-13T01:26:49.549Z,83.11
2023-01-13T01:27:11.335Z,83.12
2023-01-13T01:27:33.232Z,82.98
2023-01-13T01:27:55.104Z,83.03
2023-01-13T01:28:19.546Z,82.95
2023-01-13T01:28:41.543Z,82.80
2023-01-13T01:29:03.438Z,82.80
2023-01-13T01:29:25.312Z,82.75
2023-01-13T01:29:47.198Z,82.69
2023-01-13T01:30:09.390Z,82.70
2023-01-13T01:30:31.280Z,82.62
2023-01-13T01:30:55.524Z,82.71
2023-01-13T01:31:17.388Z,82.65
2023-01-13T01:31:39.317Z,82.65
2023-01-13T01:32:01.178Z,82.60
2023-01-13T01:32:22.968Z,82.66
2023-01-13T01:32:44.951Z,82.71
2023-01-13T01:33:06.836Z,82.76
2023-01-13T01:33:28.623Z,82.79
2023-01-13T01:33:50.514Z,82.79
2023-01-13T01:34:12.298Z,82.84
2023-01-13T01:34:34.181Z,82.90
2023-01-13T01:34:56.067Z,82.79
2023-01-13T01:35:17.852Z,82.95
2023-01-13T01:35:40.454Z,82.95
2023-01-13T01:36:02.675Z,82.91
2023-01-13T01:36:26.987Z,83.00
2023-01-13T01:36:48.775Z,82.95
2023-01-13T01:37:10.555Z,82.96
2023-01-13T01:37:32.557Z,83.06
2023-01-13T01:37:54.332Z,83.07
2023-01-13T01:38:16.115Z,83.05
2023-01-13T01:38:38.103Z,83.06
2023-01-13T01:39:00.220Z,83.12
2023-01-13T01:39:22.300Z,83.13
2023-01-13T01:39:44.176Z,83.17
2023-01-13T01:40:06.371Z,83.14
2023-01-13T01:40:28.362Z,83.23
2023-01-13T01:40:50.145Z,83.28
2023-01-13T01:41:15.614Z,83.19
2023-01-13T01:41:37.521Z,83.17
2023-01-13T01:42:18.203Z,83.13
2023-01-13T01:42:59.013Z,83.17
2023-01-13T01:43:40.223Z,83.16
2023-01-13T01:44:07.938Z,83.05
2023-01-13T01:44:41.797Z,82.97
2023-01-13T01:45:14.019Z,82.92
2023-01-13T01:45:36.000Z,82.88
2023-01-13T01:45:57.783Z,82.79
2023-01-13T01:46:19.622Z,82.82
2023-01-13T01:46:42.345Z,82.82
2023-01-13T01:47:04.412Z,82.76
2023-01-13T01:47:26.359Z,82.76
2023-01-13T01:47:48.854Z,82.70
2023-01-13T01:48:10.741Z,82.73
2023-01-13T01:48:40.402Z,82.71
2023-01-13T01:49:22.435Z,82.78
2023-01-13T01:49:44.422Z,82.93
2023-01-13T01:50:06.514Z,82.99
2023-01-13T01:50:28.606Z,83.04
2023-01-13T01:50:50.496Z,82.94
2023-01-13T01:51:12.686Z,82.99
2023-01-13T01:51:36.118Z,83.05
2023-01-13T01:52:00.875Z,83.10
2023-01-13T01:52:22.747Z,83.08
2023-01-13T01:52:44.836Z,83.11
2023-01-13T01:53:08.764Z,83.17
2023-01-13T01:53:30.560Z,83.07
2023-01-13T01:53:53.157Z,83.14
2023-01-13T01:54:17.500Z,83.17
2023-01-13T01:54:44.190Z,83.21
2023-01-13T01:55:06.291Z,83.28
2023-01-13T01:55:29.600Z,83.29
2023-01-13T01:55:51.390Z,83.48
2023-01-13T01:56:13.176Z,83.30
2023-01-13T01:56:35.057Z,83.31
2023-01-13T01:56:56.840Z,83.34
2023-01-13T01:57:23.537Z,83.32
2023-01-13T01:58:00.458Z,83.38
2023-01-13T01:58:26.236Z,83.43
2023-01-13T01:58:49.979Z,83.40
2023-01-13T01:59:11.945Z,83.36
2023-01-13T01:59:33.735Z,83.43
2023-01-13T01:59:55.615Z,83.37
2023-01-13T02:00:17.405Z,83.42
2023-01-13T02:00:39.516Z,83.42
2023-01-13T02:01:01.489Z,83.33
2023-01-13T02:01:23.652Z,83.28
2023-01-13T02:01:45.721Z,83.28
2023-01-13T02:02:08.050Z,83.24
2023-01-13T02:02:30.186Z,83.22
2023-01-13T02:02:52.043Z,83.13
2023-01-13T02:03:14.435Z,83.15
2023-01-13T02:03:37.041Z,83.09
2023-01-13T02:04:00.668Z,83.03
2023-01-13T02:04:26.237Z,82.88
2023-01-13T02:04:51.246Z,83.00
2023-01-13T02:05:13.079Z,83.06
2023-01-13T02:05:34.963Z,83.13
2023-01-13T02:05:56.850Z,83.05
2023-01-13T02:06:18.637Z,83.04
2023-01-13T02:06:40.529Z,83.12
2023-01-13T02:07:02.718Z,83.18
2023-01-13T02:07:26.036Z,83.16
2023-01-13T02:07:48.327Z,83.16
2023-01-13T02:08:10.426Z,83.14
2023-01-13T02:08:32.304Z,83.17
2023-01-13T02:08:54.090Z,83.23
2023-01-13T02:09:15.889Z,83.24
2023-01-13T02:09:37.764Z,83.28
2023-01-13T02:10:01.290Z,83.45
2023-01-13T02:10:23.888Z,83.39
2023-01-13T02:10:46.079Z,83.32
2023-01-13T02:11:27.911Z,83.42
2023-01-13T02:12:08.824Z,83.48
2023-01-13T02:12:30.724Z,83.52
2023-01-13T02:12:52.599Z,83.60
2023-01-13T02:13:14.389Z,83.54
2023-01-13T02:13:36.163Z,83.66
2023-01-13T02:13:57.952Z,83.63
2023-01-13T02:14:20.552Z,83.66
2023-01-13T02:14:42.358Z,83.59
2023-01-13T02:15:08.215Z,83.65
2023-01-13T02:15:38.687Z,83.59
2023-01-13T02:16:06.747Z,83.60
2023-01-13T02:16:28.589Z,83.65
2023-01-13T02:17:09.302Z,83.58
2023-01-13T02:17:49.805Z,83.46
2023-01-13T02:18:31.943Z,83.52
2023-01-13T02:18:56.492Z,83.43
2023-01-13T02:19:21.242Z,83.31
2023-01-13T02:19:51.000Z,83.29
2023-01-13T02:20:45.204Z,83.24
2023-01-13T02:21:06.992Z,83.03
2023-01-13T02:21:49.025Z,83.05
2023-01-13T02:22:31.061Z,83.02
2023-01-13T02:22:52.844Z,83.00
2023-01-13T02:23:52.777Z,82.96
2023-01-13T02:24:33.274Z,83.20
2023-01-13T02:25:00.803Z,83.18
2023-01-13T02:25:25.643Z,83.17
2023-01-13T02:25:55.925Z,83.18
2023-01-13T02:26:30.280Z,83.22
2023-01-13T02:26:52.170Z,83.25
2023-01-13T02:27:23.053Z,83.28
2023-01-13T02:27:47.506Z,83.43
2023-01-13T02:28:28.406Z,83.41
2023-01-13T02:29:24.048Z,83.38
2023-01-13T02:30:19.912Z,83.49
2023-01-13T02:31:01.612Z,83.50
2023-01-13T02:31:41.978Z,83.53
2023-01-13T02:32:05.433Z,83.66
2023-01-13T02:32:33.763Z,83.64
2023-01-13T02:33:04.754Z,83.64
2023-01-13T02:33:29.503Z,83.61
2023-01-13T02:33:54.463Z,83.59
2023-01-13T02:34:17.879Z,83.55
2023-01-13T02:34:40.665Z,83.60
2023-01-13T02:35:10.457Z,83.59
2023-01-13T02:35:44.095Z,83.53
2023-01-13T02:36:11.712Z,83.64
2023-01-13T02:36:42.496Z,83.53
2023-01-13T02:37:04.282Z,83.61
2023-01-13T02:37:28.934Z,83.39
2023-01-13T02:37:51.030Z,83.45
2023-01-13T02:38:13.111Z,83.41
2023-01-13T02:38:35.917Z,83.38
2023-01-13T02:38:58.637Z,83.25
2023-01-13T02:39:23.987Z,83.19
2023-01-13T02:39:59.280Z,83.32
2023-01-13T02:40:23.817Z,83.17
2023-01-13T02:40:45.606Z,83.17
2023-01-13T02:41:31.726Z,83.09
2023-01-13T02:42:18.365Z,83.07
2023-01-13T02:42:59.581Z,83.14
2023-01-13T02:43:44.887Z,83.21
2023-01-13T02:44:06.983Z,83.11
2023-01-13T02:44:30.298Z,83.23
2023-01-13T02:44:53.617Z,83.32
2023-01-13T02:45:26.080Z,83.24
2023-01-13T02:45:49.890Z,83.26
2023-01-13T02:46:15.948Z,83.26
2023-01-13T02:46:43.768Z,83.38
2023-01-13T02:47:06.880Z,83.37
2023-01-13T02:47:28.971Z,83.44
2023-01-13T02:47:50.970Z,83.44
2023-01-13T02:48:12.745Z,83.43
2023-01-13T02:48:34.634Z,83.63
2023-01-13T02:48:57.154Z,83.52
2023-01-13T02:49:39.167Z,83.51
2023-01-13T02:50:02.283Z,83.49
2023-01-13T02:50:35.010Z,83.70
2023-01-13T02:50:58.845Z,83.58
2023-01-13T02:51:21.064Z,83.64
2023-01-13T02:51:42.923Z,83.65
2023-01-13T02:52:12.073Z,83.66
2023-01-13T02:52:35.606Z,83.63
2023-01-13T02:52:58.703Z,83.53
2023-01-13T02:53:22.438Z,83.42
2023-01-13T02:54:03.137Z,83.55
2023-01-13T02:54:25.843Z,83.41
2023-01-13T02:54:49.265Z,83.39
2023-01-13T02:55:12.686Z,83.40
2023-01-13T02:55:35.104Z,83.22
2023-01-13T02:55:56.968Z,83.31
2023-01-13T02:56:18.755Z,83.23
2023-01-13T02:56:41.872Z,83.09
2023-01-13T02:57:03.656Z,83.26
2023-01-13T02:57:25.438Z,83.19
2023-01-13T02:57:47.222Z,83.14
2023-01-13T02:58:09.664Z,83.12
2023-01-13T02:58:32.023Z,83.24
2023-01-13T02:58:54.215Z,83.28
2023-01-13T02:59:15.996Z,83.35
2023-01-13T02:59:37.675Z,83.35
2023-01-13T02:59:59.363Z,83.28
2023-01-13T03:00:21.122Z,83.37
2023-01-13T03:00:43.302Z,83.49
2023-01-13T03:01:05.348Z,83.38
2023-01-13T03:01:27.401Z,83.37
2023-01-13T03:01:50.101Z,83.50
2023-01-13T03:02:13.382Z,83.60
2023-01-13T03:02:35.808Z,83.54
2023-01-13T03:02:57.780Z,83.63
2023-01-13T03:03:19.709Z,83.71
2023-01-13T03:03:41.495Z,83.71
2023-01-13T03:04:13.308Z,83.75
2023-01-13T03:04:50.208Z,83.87
2023-01-13T03:05:15.280Z,83.84
2023-01-13T03:05:37.579Z,83.86
2023-01-13T03:06:09.281Z,83.93
2023-01-13T03:06:40.998Z,83.97
2023-01-13T03:07:06.556Z,83.97
2023-01-13T03:07:46.835Z,83.99
2023-01-13T03:08:29.907Z,83.97
2023-01-13T03:09:11.857Z,83.87
2023-01-13T03:09:36.906Z,83.93
2023-01-13T03:10:10.032Z,83.91
2023-01-13T03:10:50.603Z,83.78
2023-01-13T03:11:12.883Z,83.81
2023-01-13T03:11:35.701Z,83.74
2023-01-13T03:12:10.821Z,83.65
2023-01-13T03:12:47.235Z,83.63
2023-01-13T03:13:32.032Z,83.52
2023-01-13T03:13:59.355Z,83.53
2023-01-13T03:14:27.379Z,83.46
2023-01-13T03:15:01.825Z,83.51
2023-01-13T03:15:29.584Z,83.50
2023-01-13T03:16:13.540Z,83.63
2023-01-13T03:16:54.186Z,83.62
2023-01-13T03:17:22.462Z,83.57
2023-01-13T03:17:45.059Z,83.61
2023-01-13T03:18:20.748Z,83.67
2023-01-13T03:18:45.298Z,83.70
2023-01-13T03:19:16.183Z,83.70
2023-01-13T03:19:51.366Z,83.71
2023-01-13T03:20:16.143Z,83.88
2023-01-13T03:20:39.742Z,83.86
2023-01-13T03:21:08.688Z,83.75
2023-01-13T03:21:39.263Z,83.88
2023-01-13T03:22:19.762Z,83.96
2023-01-13T03:23:20.105Z,83.84
2023-01-13T03:23:50.594Z,83.85
2023-01-13T03:24:27.718Z,83.88
2023-01-13T03:24:56.550Z,84.03
2023-01-13T03:25:19.155Z,84.01
2023-01-13T03:25:42.063Z,84.06
2023-01-13T03:26:30.230Z,84.07
2023-01-13T03:27:53.387Z,84.00
2023-01-13T03:28:24.070Z,84.02
2023-01-13T03:28:47.079Z,83.96
2023-01-13T03:29:27.786Z,83.83
2023-01-13T03:29:51.106Z,83.81
2023-01-13T03:30:12.897Z,83.69
2023-01-13T03:30:41.901Z,83.73
2023-01-13T03:31:05.306Z,83.47
2023-01-13T03:31:30.498Z,83.64
2023-01-13T03:32:53.256Z,83.55
2023-01-13T03:33:16.264Z,83.59
2023-01-13T03:33:40.572Z,83.57
2023-01-13T03:34:04.963Z,83.45
2023-01-13T03:34:34.304Z,83.56
2023-01-13T03:34:57.421Z,83.64
2023-01-13T03:35:20.939Z,83.53
2023-01-13T03:35:46.204Z,83.69
2023-01-13T03:36:08.635Z,83.64
2023-01-13T03:36:30.484Z,83.70
2023-01-13T03:36:53.289Z,83.75
2023-01-13T03:37:15.381Z,83.65
2023-01-13T03:37:38.291Z,83.79
2023-01-13T03:38:01.216Z,83.77
2023-01-13T03:38:29.837Z,83.83
2023-01-13T03:38:52.334Z,83.87
2023-01-13T03:39:14.939Z,83.77
2023-01-13T03:39:37.951Z,83.86
2023-01-13T03:40:04.352Z,83.92
2023-01-13T03:40:52.145Z,83.88
2023-01-13T03:41:16.034Z,83.95
2023-01-13T03:41:49.179Z,83.96
2023-01-13T03:42:12.184Z,84.00
2023-01-13T03:42:34.177Z,84.10
2023-01-13T03:43:16.759Z,84.04
2023-01-13T03:43:59.270Z,84.04
2023-01-13T03:44:22.275Z,83.94
2023-01-13T03:45:02.881Z,83.93
2023-01-13T03:45:24.668Z,83.79
2023-01-13T03:45:46.772Z,83.88
2023-01-13T03:46:10.998Z,83.93
2023-01-13T03:46:53.624Z,83.71
2023-01-13T03:47:22.908Z,83.69
2023-01-13T03:47:51.426Z,83.69
2023-01-13T03:48:14.439Z,83.78
2023-01-13T03:48:36.224Z,83.72
2023-01-13T03:48:58.008Z,83.74
2023-01-13T03:49:21.429Z,83.68
2023-01-13T03:49:56.920Z,83.72
2023-01-13T03:50:20.145Z,83.76
2023-01-13T03:50:47.452Z,83.78
2023-01-13T03:51:10.654Z,83.80
2023-01-13T03:51:32.444Z,83.89
2023-01-13T03:51:57.291Z,83.98
2023-01-13T03:52:21.034Z,83.93
2023-01-13T03:52:50.069Z,83.93
2023-01-13T03:53:15.845Z,84.07
2023-01-13T03:53:42.638Z,84.09
2023-01-13T03:54:05.956Z,84.12
2023-01-13T03:54:28.356Z,84.12
2023-01-13T03:54:52.293Z,84.14
2023-01-13T03:55:14.017Z,84.13
2023-01-13T03:55:36.777Z,84.32
2023-01-13T03:55:59.580Z,84.17
2023-01-13T03:56:24.236Z,84.17
2023-01-13T03:56:47.388Z,84.28
2023-01-13T03:57:09.953Z,84.23
2023-01-13T03:57:32.249Z,84.27
2023-01-13T03:57:55.786Z,84.38
2023-01-13T03:58:21.809Z,84.31
2023-01-13T03:58:44.177Z,84.29
2023-01-13T03:59:06.982Z,84.33
2023-01-13T03:59:30.475Z,84.29
2023-01-13T03:59:52.770Z,84.29
2023-01-13T04:00:14.861Z,84.33
2023-01-13T04:00:37.973Z,84.36
2023-01-13T04:01:11.787Z,84.31
2023-01-13T04:01:35.842Z,84.35
2023-01-13T04:02:05.499Z,84.30
2023-01-13T04:02:31.105Z,84.31
2023-01-13T04:02:57.285Z,84.29
2023-01-13T04:03:38.134Z,84.30
2023-01-13T04:04:08.709Z,84.35
2023-01-13T04:04:32.391Z,84.35
2023-01-13T04:04:58.270Z,84.24
2023-01-13T04:05:20.005Z,84.17
2023-01-13T04:05:42.551Z,84.20
2023-01-13T04:06:27.271Z,84.08
2023-01-13T04:06:56.501Z,84.14
2023-01-13T04:07:30.045Z,84.01
2023-01-13T04:07:54.584Z,83.87
2023-01-13T04:08:20.468Z,83.97
2023-01-13T04:08:44.107Z,83.83
2023-01-13T04:09:26.119Z,83.82
2023-01-13T04:09:47.801Z,83.81
2023-01-13T04:10:09.705Z,83.79
2023-01-13T04:10:34.017Z,83.73
2023-01-13T04:10:55.719Z,83.81
2023-01-13T04:11:25.170Z,83.74
2023-01-13T04:11:48.181Z,83.77
2023-01-13T04:12:55.041Z,83.72
2023-01-13T04:13:18.791Z,83.81
2023-01-13T04:13:40.540Z,83.86
2023-01-13T04:14:02.670Z,83.86
2023-01-13T04:14:24.457Z,83.90
2023-01-13T04:14:46.139Z,83.99
2023-01-13T04:15:08.436Z,83.99
2023-01-13T04:15:31.834Z,83.98
2023-01-13T04:15:53.781Z,83.94
2023-01-13T04:16:15.524Z,83.95
2023-01-13T04:16:37.825Z,84.11
2023-01-13T04:16:59.722Z,84.09
2023-01-13T04:17:21.596Z,84.10
2023-01-13T04:17:43.312Z,84.10
2023-01-13T04:18:15.243Z,84.10
2023-01-13T04:18:37.385Z,84.14
2023-01-13T04:18:59.164Z,84.13
2023-01-13T04:19:21.459Z,84.16
2023-01-13T04:19:43.248Z,84.37
2023-01-13T04:20:05.346Z,84.27
2023-01-13T04:20:27.126Z,84.24
2023-01-13T04:20:49.533Z,84.25
2023-01-13T04:21:11.242Z,84.28
2023-01-13T04:21:32.986Z,84.45
2023-01-13T04:21:54.891Z,84.26
2023-01-13T04:22:16.606Z,84.30
2023-01-13T04:22:38.441Z,84.32
2023-01-13T04:23:00.223Z,84.26
2023-01-13T04:23:22.018Z,84.38
2023-01-13T04:23:43.774Z,84.33
2023-01-13T04:24:05.794Z,84.25
2023-01-13T04:24:27.510Z,84.22
2023-01-13T04:24:49.220Z,84.27
2023-01-13T04:25:11.550Z,84.19
2023-01-13T04:25:34.252Z,84.15
2023-01-13T04:25:56.047Z,84.12
2023-01-13T04:26:19.861Z,84.13
2023-01-13T04:26:41.668Z,84.09
2023-01-13T04:27:03.654Z,84.04
2023-01-13T04:27:25.424Z,83.98
2023-01-13T04:27:47.132Z,83.97
2023-01-13T04:28:08.910Z,83.86
2023-01-13T04:28:30.683Z,83.91
2023-01-13T04:28:54.822Z,83.86
2023-01-13T04:29:16.567Z,83.76
2023-01-13T04:29:38.303Z,83.92
2023-01-13T04:29:59.997Z,83.91
2023-01-13T04:30:21.683Z,83.99
2023-01-13T04:30:43.873Z,83.94
2023-01-13T04:31:05.806Z,84.01
2023-01-13T04:31:27.661Z,84.00
2023-01-13T04:31:49.496Z,84.11
2023-01-13T04:32:11.290Z,84.07
2023-01-13T04:32:33.064Z,84.17
2023-01-13T04:32:55.260Z,84.20
2023-01-13T04:33:17.253Z,84.32
2023-01-13T04:33:39.032Z,84.26
2023-01-13T04:34:00.928Z,84.26
2023-01-13T04:34:22.708Z,84.31
2023-01-13T04:34:44.387Z,84.33
2023-01-13T04:35:06.280Z,84.39
2023-01-13T04:35:28.472Z,84.46
2023-01-13T04:35:50.159Z,84.39
2023-01-13T04:36:11.863Z,84.56
2023-01-13T04:36:33.616Z,84.60
2023-01-13T04:36:55.398Z,84.64
2023-01-13T04:37:17.184Z,84.71
2023-01-13T04:37:38.967Z,84.61
2023-01-13T04:38:01.779Z,84.63
2023-01-13T04:38:23.667Z,84.68
2023-01-13T04:38:45.553Z,84.70
2023-01-13T04:39:07.331Z,84.75
2023-01-13T04:39:29.097Z,84.63
2023-01-13T04:39:50.907Z,84.71
2023-01-13T04:40:12.908Z,84.71
2023-01-13T04:40:34.702Z,84.74
2023-01-13T04:40:56.395Z,84.66
2023-01-13T04:41:18.150Z,84.75
2023-01-13T04:41:58.142Z,84.76
2023-01-13T04:42:19.915Z,84.80
2023-01-13T04:42:43.439Z,84.77
2023-01-13T04:43:05.241Z,84.64
2023-01-13T04:43:27.022Z,84.73
2023-01-13T04:43:48.793Z,84.66
2023-01-13T04:44:10.470Z,84.68
2023-01-13T04:44:35.459Z,84.51
2023-01-13T04:44:57.419Z,84.67
2023-01-13T04:45:19.120Z,84.51
2023-01-13T04:45:41.396Z,84.39
2023-01-13T04:46:03.233Z,84.36
2023-01-13T04:46:25.127Z,84.38
2023-01-13T04:46:46.954Z,84.33
2023-01-13T04:47:08.739Z,84.27
2023-01-13T04:47:30.523Z,84.19
2023-01-13T04:47:52.239Z,84.24
2023-01-13T04:48:14.330Z,84.27
2023-01-13T04:48:36.130Z,84.34
2023-01-13T04:48:57.844Z,84.37
2023-01-13T04:49:19.713Z,84.37
2023-01-13T04:49:41.537Z,84.26
2023-01-13T04:50:03.627Z,84.32
2023-01-13T04:50:25.622Z,84.28
2023-01-13T04:50:47.408Z,84.42
2023-01-13T04:51:09.188Z,84.40
2023-01-13T04:51:30.975Z,84.45
2023-01-13T04:51:52.759Z,84.51
2023-01-13T04:52:14.447Z,84.60
2023-01-13T04:52:36.179Z,84.57
2023-01-13T04:52:57.954Z,84.68
2023-01-13T04:53:19.699Z,84.58
2023-01-13T04:53:41.479Z,84.58
2023-01-13T04:54:03.374Z,84.63
2023-01-13T04:54:25.077Z,84.62
2023-01-13T04:54:46.837Z,84.65
2023-01-13T04:55:09.532Z,84.75
2023-01-13T04:55:32.234Z,84.70
2023-01-13T04:55:54.023Z,84.70
2023-01-13T04:56:15.809Z,84.75
2023-01-13T04:56:37.558Z,84.78
2023-01-13T04:56:59.272Z,84.83
2023-01-13T04:57:20.955Z,84.87
2023-01-13T04:57:42.737Z,84.97
2023-01-13T04:58:05.239Z,84.83
2023-01-13T04:58:27.024Z,84.84
2023-01-13T04:58:48.705Z,84.93
2023-01-13T04:59:11.798Z,84.88
2023-01-13T04:59:34.667Z,84.90
2023-01-13T04:59:56.850Z,84.95
2023-01-13T05:00:19.326Z,84.96
2023-01-13T05:00:41.379Z,84.98
2023-01-13T05:01:03.255Z,84.98
2023-01-13T05:01:25.419Z,84.93
2023-01-13T05:01:47.341Z,84.98
2023-01-13T05:02:09.535Z,84.89
2023-01-13T05:02:31.299Z,84.86
2023-01-13T05:02:52.988Z,84.99
2023-01-13T05:03:14.834Z,84.88
2023-01-13T05:03:36.608Z,84.86
2023-01-13T05:03:58.395Z,84.70
2023-01-13T05:04:20.279Z,84.74
2023-01-13T05:04:42.329Z,84.63
2023-01-13T05:05:04.620Z,84.69
2023-01-13T05:05:27.593Z,84.59
2023-01-13T05:05:51.205Z,84.52
2023-01-13T05:06:12.992Z,84.45
2023-01-13T05:06:34.775Z,84.46
2023-01-13T05:06:56.965Z,84.40
2023-01-13T05:07:18.754Z,84.40
2023-01-13T05:07:40.533Z,84.31
2023-01-13T05:08:02.328Z,84.38
2023-01-13T05:08:24.102Z,84.36
2023-01-13T05:08:45.833Z,84.39
2023-01-13T05:09:08.284Z,84.37
2023-01-13T05:09:29.968Z,84.39
2023-01-13T05:09:51.748Z,84.36
2023-01-13T05:10:13.539Z,84.33
2023-01-13T05:10:35.323Z,84.35
2023-01-13T05:10:59.857Z,84.43
2023-01-13T05:11:40.158Z,84.47
2023-01-13T05:12:20.560Z,84.35
2023-01-13T05:13:01.369Z,84.59
2023-01-13T05:13:41.563Z,84.65
2023-01-13T05:14:22.472Z,84.63
2023-01-13T05:15:13.712Z,84.62
2023-01-13T05:15:54.342Z,84.78
2023-01-13T05:16:34.705Z,84.79
2023-01-13T05:17:02.736Z,84.85
2023-01-13T05:17:24.527Z,84.81
2023-01-13T05:17:46.304Z,84.78
2023-01-13T05:18:08.192Z,84.81
2023-01-13T05:18:29.924Z,84.88
2023-01-13T05:18:51.635Z,84.81
2023-01-13T05:19:13.544Z,84.89
2023-01-13T05:19:36.123Z,84.89
2023-01-13T05:19:57.932Z,84.91
2023-01-13T05:20:19.817Z,84.93
2023-01-13T05:20:41.606Z,84.92
2023-01-13T05:21:03.491Z,84.94
2023-01-13T05:21:44.095Z,84.97